Allison Park, Pennsylvania
Current Conditions -  °F | °C
As of 4:51 PM on Friday 24 Oct 2014 (Local Time) from KPIT Reporting Station
Few Clouds Few Clouds  
Wind Chill: 60°   Ceiling: Unl
Heat Index: 60°   Visibility: 10mi
Dew Point: 37°   Wind: 7mph
Humidity: 42%   Direction: 260°W
Pressure: 30"   Gusts: NA
Location:  40.56°N, 79.96°W
Report Text: KPIT 242051Z 26006KT 10SM FEW250 16/03 A3000 RMK AO2 SLP168 T01560028 56015
Loading
Personal Weather Stations






























Interactive Weather Map
Tropical Storm Tracking
New forecast layout! Learn more

10-Day Weather Forecast

Advertisements
Track Severe Weather on mobile